Time;durP1;ratioP1;P1;durP2;ratioP2;P2;SDS_P1;SDS_P2;PMS_P1;PMS_P2;Temp;Humidity;BMP_temperature;BMP_pressure;BME280_temperature;BME280_humidity;BME280_pressure;Samples;Min_cycle;Max_cycle;Signal;HPM_P1;HPM_P2
2023/08/06 00:01:52;;;;;;;8.93;3.20;;;13.50;99.90;;;;;;6230252;23;20062;-77
2023/08/06 00:04:17;;;;;;;5.82;3.17;;;13.50;99.90;;;;;;6230498;23;20022;-77
2023/08/06 00:06:43;;;;;;;4.53;2.88;;;13.50;99.90;;;;;;6230052;23;20048;-77
2023/08/06 00:09:08;;;;;;;4.07;2.70;;;13.50;99.90;;;;;;6228626;22;20023;-77
2023/08/06 00:11:34;;;;;;;5.18;2.83;;;13.60;99.90;;;;;;6229321;23;20401;-77
2023/08/06 00:14:00;;;;;;;5.63;2.80;;;13.60;99.90;;;;;;6228131;23;20104;-78
2023/08/06 00:16:25;;;;;;;5.07;3.15;;;13.70;99.90;;;;;;6229544;23;20144;-77
2023/08/06 00:18:51;;;;;;;5.93;2.95;;;13.70;99.90;;;;;;6230635;23;20321;-78
2023/08/06 00:21:16;;;;;;;5.03;2.85;;;13.70;99.90;;;;;;6230948;23;20016;-77
2023/08/06 00:23:42;;;;;;;6.55;3.15;;;13.70;99.90;;;;;;6227522;23;20004;-78
2023/08/06 00:26:07;;;;;;;4.28;2.20;;;13.70;99.90;;;;;;6226117;23;20008;-77
2023/08/06 00:28:33;;;;;;;2.72;2.25;;;13.70;99.90;;;;;;6226783;23;20007;-77
2023/08/06 00:30:58;;;;;;;3.83;2.08;;;13.80;99.90;;;;;;6229453;23;20581;-77
2023/08/06 00:33:24;;;;;;;5.03;2.35;;;13.70;99.90;;;;;;6228625;23;20595;-77
2023/08/06 00:35:50;;;;;;;3.05;2.20;;;13.80;99.90;;;;;;6228392;23;20065;-77
2023/08/06 00:38:16;;;;;;;3.40;2.03;;;13.80;99.90;;;;;;6229140;23;20083;-78
2023/08/06 00:40:42;;;;;;;6.72;1.90;;;13.70;99.90;;;;;;6229061;23;20432;-78
2023/08/06 00:43:07;;;;;;;3.42;1.80;;;13.70;99.90;;;;;;6229137;23;20087;-78
2023/08/06 00:45:35;;;;;;;4.32;1.80;;;13.70;99.90;;;;;;6229213;23;20008;-77
2023/08/06 00:48:03;;;;;;;2.17;1.60;;;13.70;99.90;;;;;;6228949;23;20521;-78
2023/08/06 00:50:29;;;;;;;3.55;1.80;;;13.70;99.90;;;;;;6228684;23;20005;-77
2023/08/06 00:52:55;;;;;;;2.40;1.60;;;13.70;99.90;;;;;;6227912;23;20031;-76
2023/08/06 00:55:20;;;;;;;2.20;1.48;;;13.70;99.90;;;;;;6228464;23;20775;-77
2023/08/06 00:57:46;;;;;;;4.22;1.80;;;13.70;99.90;;;;;;6229297;23;20153;-78
2023/08/06 01:00:12;;;;;;;3.00;1.35;;;13.60;99.90;;;;;;6229020;23;20008;-77
2023/08/06 01:02:38;;;;;;;3.33;1.45;;;13.70;99.90;;;;;;6228351;23;20007;-77
2023/08/06 01:05:04;;;;;;;5.18;2.38;;;13.70;99.90;;;;;;6226244;23;20010;-78
2023/08/06 01:08:28;;;;;;;5.00;1.60;;;13.60;99.90;;;;;;6226592;23;20066;-77
2023/08/06 01:10:53;;;;;;;1.85;1.25;;;13.60;99.90;;;;;;6106310;23;20005;-77
2023/08/06 01:13:28;;;;;;;7.60;1.50;;;13.60;99.90;;;;;;6104410;23;20064;-77
2023/08/06 01:15:57;;;;;;;3.53;1.58;;;13.60;99.90;;;;;;6169672;23;20020;-76
2023/08/06 01:18:23;;;;;;;2.63;1.48;;;13.50;99.90;;;;;;6228928;23;20008;-76
2023/08/06 01:20:49;;;;;;;2.60;1.40;;;13.50;99.90;;;;;;6229661;23;20012;-77
2023/08/06 01:23:15;;;;;;;4.82;1.52;;;13.50;99.90;;;;;;6227983;23;20011;-77
2023/08/06 01:25:55;;;;;;;2.30;1.17;;;13.60;99.90;;;;;;6231913;23;20008;-76
2023/08/06 01:29:00;;;;;;;1.88;1.27;;;13.60;99.90;;;;;;6228345;23;20004;-78
2023/08/06 01:31:48;;;;;;;4.75;1.60;;;13.50;99.90;;;;;;6229807;23;20030;-77
2023/08/06 01:34:25;;;;;;;3.67;1.38;;;13.50;99.90;;;;;;6231100;23;20276;-76
2023/08/06 01:36:51;;;;;;;3.05;1.20;;;13.40;99.90;;;;;;6230619;23;20069;-77
2023/08/06 01:39:20;;;;;;;2.53;1.10;;;13.30;99.90;;;;;;6230673;23;20004;-78
2023/08/06 01:41:46;;;;;;;3.42;1.50;;;13.10;99.90;;;;;;6231007;23;20008;-77
2023/08/06 01:44:12;;;;;;;4.28;1.40;;;13.00;99.90;;;;;;6229994;23;20087;-76
2023/08/06 01:46:38;;;;;;;3.75;1.10;;;12.80;99.90;;;;;;6230767;23;20078;-77
2023/08/06 01:49:03;;;;;;;4.05;1.38;;;12.60;99.90;;;;;;6226253;23;20008;-78
2023/08/06 01:51:29;;;;;;;3.75;1.40;;;12.50;99.90;;;;;;6200773;23;20008;-77
2023/08/06 01:53:54;;;;;;;2.95;1.50;;;12.40;99.90;;;;;;6228296;23;20087;-77
2023/08/06 01:56:20;;;;;;;2.55;1.60;;;12.30;99.90;;;;;;6227680;23;20012;-77
2023/08/06 01:58:46;;;;;;;5.25;1.48;;;12.20;99.90;;;;;;6227349;23;20009;-76
2023/08/06 02:01:11;;;;;;;4.53;1.63;;;12.10;99.90;;;;;;6227410;23;20059;-77
2023/08/06 02:03:37;;;;;;;2.92;1.60;;;12.10;99.90;;;;;;6229863;23;20004;-76
2023/08/06 02:06:02;;;;;;;2.50;1.40;;;12.10;99.90;;;;;;6229871;23;20369;-77
2023/08/06 02:08:28;;;;;;;5.93;1.50;;;12.10;99.90;;;;;;6228528;22;20012;-77
2023/08/06 02:10:53;;;;;;;6.95;1.67;;;12.00;99.90;;;;;;6230975;23;20022;-76
2023/08/06 02:13:19;;;;;;;3.45;1.77;;;12.00;99.90;;;;;;6202146;23;20000;-77
2023/08/06 02:15:49;;;;;;;4.63;1.60;;;12.00;99.90;;;;;;6228176;23;20016;-77
2023/08/06 02:18:15;;;;;;;3.13;1.80;;;11.90;99.90;;;;;;6229506;23;19996;-76
2023/08/06 02:20:41;;;;;;;9.77;1.88;;;11.90;99.90;;;;;;6230816;23;20020;-77
2023/08/06 02:23:07;;;;;;;6.60;1.92;;;11.80;99.90;;;;;;6231336;23;20004;-78
2023/08/06 02:25:32;;;;;;;4.82;1.90;;;11.80;99.90;;;;;;6229971;23;20081;-78
2023/08/06 02:27:58;;;;;;;3.05;1.98;;;11.70;99.90;;;;;;6229337;23;20000;-77
2023/08/06 02:30:24;;;;;;;6.40;2.05;;;11.70;99.90;;;;;;6230181;23;20316;-77
2023/08/06 02:32:49;;;;;;;4.45;2.25;;;11.70;99.90;;;;;;6231603;23;20061;-77
2023/08/06 02:35:15;;;;;;;4.55;2.22;;;11.60;99.90;;;;;;6232515;23;20070;-77
2023/08/06 02:37:40;;;;;;;4.88;2.00;;;11.60;99.90;;;;;;6230317;23;20007;-77
2023/08/06 02:40:06;;;;;;;7.43;2.00;;;11.50;99.90;;;;;;6229908;23;20004;-77
2023/08/06 02:42:32;;;;;;;3.22;1.75;;;11.50;99.90;;;;;;6228059;23;20015;-78
2023/08/06 02:44:58;;;;;;;4.10;2.10;;;11.50;99.90;;;;;;6228246;23;20091;-77
2023/08/06 02:47:23;;;;;;;5.28;2.10;;;11.40;99.90;;;;;;6229875;23;20760;-77
2023/08/06 02:49:49;;;;;;;4.97;2.42;;;11.40;99.90;;;;;;6229763;23;20000;-78
2023/08/06 02:52:15;;;;;;;3.67;2.05;;;11.30;99.90;;;;;;6203070;23;20012;-76
2023/08/06 02:54:40;;;;;;;3.50;2.30;;;11.30;99.90;;;;;;6230704;23;20015;-76
2023/08/06 02:57:06;;;;;;;4.47;2.10;;;11.30;99.90;;;;;;6229935;23;20368;-77
2023/08/06 02:59:32;;;;;;;4.65;2.25;;;11.20;99.90;;;;;;6229341;23;20027;-77
2023/08/06 03:01:58;;;;;;;3.60;1.70;;;11.20;99.90;;;;;;6230732;23;20012;-78
2023/08/06 03:04:23;;;;;;;5.25;2.10;;;11.20;99.90;;;;;;6229751;23;20004;-77
2023/08/06 03:06:50;;;;;;;4.32;2.28;;;11.20;99.90;;;;;;6229994;23;20421;-77
2023/08/06 03:09:16;;;;;;;4.03;1.83;;;11.20;99.90;;;;;;6229442;22;20027;-77
2023/08/06 03:11:42;;;;;;;2.72;1.90;;;11.10;99.90;;;;;;6228947;23;20008;-78
2023/08/06 03:14:08;;;;;;;5.80;2.28;;;11.00;99.90;;;;;;6230729;23;20159;-77
2023/08/06 03:16:33;;;;;;;4.95;1.80;;;11.00;99.90;;;;;;6202828;23;20169;-77
2023/08/06 03:18:59;;;;;;;2.15;1.70;;;11.10;99.90;;;;;;6230773;23;20019;-77
2023/08/06 03:21:25;;;;;;;4.22;1.77;;;11.00;99.90;;;;;;6230346;23;20000;-77
2023/08/06 03:23:50;;;;;;;3.58;1.90;;;11.00;99.90;;;;;;6202980;23;20020;-76
2023/08/06 03:26:16;;;;;;;2.47;1.67;;;11.00;99.90;;;;;;6229733;23;20170;-76
2023/08/06 03:28:41;;;;;;;4.50;1.83;;;10.90;99.90;;;;;;6229585;23;20008;-78
2023/08/06 03:31:07;;;;;;;3.42;1.88;;;10.90;99.90;;;;;;6230870;23;20012;-76
2023/08/06 03:33:33;;;;;;;4.63;1.92;;;10.90;99.90;;;;;;6228718;23;20324;-77
2023/08/06 03:35:59;;;;;;;3.35;1.83;;;10.90;99.90;;;;;;6229081;23;20020;-77
2023/08/06 03:38:24;;;;;;;4.32;1.88;;;10.80;99.90;;;;;;6226738;23;20003;-78
2023/08/06 03:40:50;;;;;;;4.65;2.30;;;10.80;99.90;;;;;;6229727;23;20012;-78
2023/08/06 03:43:15;;;;;;;3.45;1.88;;;10.80;99.90;;;;;;6202676;23;20095;-77
2023/08/06 03:45:41;;;;;;;4.63;1.90;;;10.70;99.90;;;;;;6229898;23;20012;-77
2023/08/06 03:48:07;;;;;;;5.38;2.30;;;10.70;99.90;;;;;;6230522;23;20030;-78
2023/08/06 03:50:33;;;;;;;5.75;2.08;;;10.70;99.90;;;;;;6231075;23;20012;-77
2023/08/06 03:52:59;;;;;;;4.85;1.90;;;10.70;99.90;;;;;;6230489;23;20440;-78
2023/08/06 03:55:24;;;;;;;2.55;1.90;;;10.70;99.90;;;;;;6230732;23;20008;-77
2023/08/06 03:57:50;;;;;;;7.13;2.00;;;10.60;99.90;;;;;;6230608;23;20000;-77
2023/08/06 04:00:16;;;;;;;4.13;1.80;;;10.60;99.90;;;;;;6230651;23;20035;-77
2023/08/06 04:02:42;;;;;;;5.32;2.13;;;10.60;99.90;;;;;;6231609;23;20081;-78
2023/08/06 04:05:07;;;;;;;4.28;2.05;;;10.60;99.90;;;;;;6229140;23;20455;-77
2023/08/06 04:07:33;;;;;;;4.93;2.03;;;10.60;99.90;;;;;;6229073;23;20031;-78
2023/08/06 04:10:00;;;;;;;5.32;1.80;;;10.60;99.90;;;;;;6228715;23;20079;-77
2023/08/06 04:12:27;;;;;;;3.78;2.15;;;10.50;99.90;;;;;;6229312;23;20015;-77
2023/08/06 04:14:53;;;;;;;3.95;1.80;;;10.50;99.90;;;;;;6228891;23;20404;-77
2023/08/06 04:17:20;;;;;;;5.57;2.13;;;10.50;99.90;;;;;;6226588;23;20012;-77
2023/08/06 04:19:58;;;;;;;3.42;2.05;;;10.50;99.90;;;;;;6227327;23;20032;-77
2023/08/06 04:22:23;;;;;;;4.43;2.50;;;10.40;99.90;;;;;;6227456;23;20008;-77
2023/08/06 04:24:49;;;;;;;6.40;2.10;;;10.40;99.90;;;;;;6231916;23;20370;-77
2023/08/06 04:27:15;;;;;;;4.95;2.13;;;10.40;99.90;;;;;;6229374;23;20008;-75
2023/08/06 04:29:41;;;;;;;5.10;2.10;;;10.40;99.90;;;;;;6228003;23;20100;-76
2023/08/06 04:32:08;;;;;;;6.22;2.35;;;10.40;99.90;;;;;;6227518;23;20733;-77
2023/08/06 04:34:35;;;;;;;4.43;2.10;;;10.40;99.90;;;;;;6226970;23;20049;-77
2023/08/06 04:37:01;;;;;;;5.18;2.42;;;10.40;99.90;;;;;;6225880;23;20039;-75
2023/08/06 04:39:27;;;;;;;4.30;2.13;;;10.40;99.90;;;;;;6226800;23;20094;-78
2023/08/06 04:41:53;;;;;;;3.03;2.10;;;10.40;99.90;;;;;;6229071;23;20310;-76
2023/08/06 04:44:18;;;;;;;4.15;2.33;;;10.40;99.90;;;;;;6227216;23;20008;-76
2023/08/06 04:46:44;;;;;;;3.50;2.47;;;10.40;99.90;;;;;;6228541;23;20011;-77
2023/08/06 04:49:10;;;;;;;5.40;2.60;;;10.50;99.90;;;;;;6230219;23;20075;-77
2023/08/06 04:51:35;;;;;;;6.32;2.65;;;10.50;99.90;;;;;;6227033;23;20022;-77
2023/08/06 04:54:01;;;;;;;4.13;2.45;;;10.50;99.90;;;;;;6222461;23;20004;-77
2023/08/06 04:56:27;;;;;;;4.97;2.42;;;10.40;99.90;;;;;;6230193;23;20461;-77
2023/08/06 04:58:52;;;;;;;8.77;2.70;;;10.50;99.90;;;;;;6227974;23;20053;-77
2023/08/06 05:01:18;;;;;;;5.22;2.15;;;10.50;99.90;;;;;;6226924;23;20079;-77
2023/08/06 05:03:43;;;;;;;5.57;2.45;;;10.50;99.90;;;;;;6226371;23;20797;-77
2023/08/06 05:06:10;;;;;;;3.92;2.13;;;10.60;99.90;;;;;;6226598;23;20011;-78
2023/08/06 05:08:36;;;;;;;4.25;2.22;;;10.60;99.90;;;;;;6221218;22;20531;-77
2023/08/06 05:11:02;;;;;;;5.15;2.30;;;10.60;99.90;;;;;;6224363;23;20054;-77
2023/08/06 05:13:27;;;;;;;3.67;2.38;;;10.60;99.90;;;;;;6224647;23;20054;-78
2023/08/06 05:15:54;;;;;;;3.55;2.20;;;10.70;99.90;;;;;;6227746;23;20317;-77
2023/08/06 05:18:19;;;;;;;6.85;2.72;;;10.70;99.90;;;;;;6226220;23;20008;-76
2023/08/06 05:20:45;;;;;;;5.28;2.40;;;10.70;99.90;;;;;;6227160;23;20458;-77
2023/08/06 05:23:11;;;;;;;3.95;2.50;;;10.80;99.90;;;;;;6224198;23;20023;-77
2023/08/06 05:25:39;;;;;;;6.15;2.30;;;10.80;99.90;;;;;;6224696;23;20062;-77
2023/08/06 05:28:05;;;;;;;4.78;2.17;;;10.80;99.90;;;;;;6222442;23;20008;-78
2023/08/06 05:30:31;;;;;;;4.25;2.25;;;10.90;99.90;;;;;;6224859;23;20034;-77
2023/08/06 05:32:57;;;;;;;4.28;2.55;;;11.00;99.90;;;;;;6224994;23;20028;-76
2023/08/06 05:35:23;;;;;;;4.97;2.30;;;11.00;99.90;;;;;;6225908;23;20008;-77
2023/08/06 05:37:50;;;;;;;6.30;2.85;;;11.00;99.90;;;;;;6227714;23;20356;-77
2023/08/06 05:40:16;;;;;;;5.85;2.47;;;11.20;99.90;;;;;;6228696;23;20375;-77
2023/08/06 05:42:42;;;;;;;5.13;2.22;;;11.10;99.90;;;;;;6202066;23;20011;-77
2023/08/06 05:45:08;;;;;;;8.13;2.50;;;11.20;99.90;;;;;;6201486;23;20086;-76
2023/08/06 05:47:33;;;;;;;5.65;2.20;;;11.30;99.90;;;;;;6225414;23;20088;-77
2023/08/06 05:49:59;;;;;;;5.55;2.45;;;11.30;99.90;;;;;;6225930;23;20031;-77
2023/08/06 05:52:25;;;;;;;6.57;2.45;;;11.40;99.90;;;;;;6225993;23;20005;-77
2023/08/06 05:54:50;;;;;;;6.20;2.30;;;11.40;99.90;;;;;;6227765;23;20074;-77
2023/08/06 05:57:17;;;;;;;3.10;2.15;;;11.50;99.90;;;;;;6227796;23;20020;-77
2023/08/06 05:59:43;;;;;;;4.82;2.00;;;11.50;99.90;;;;;;6227898;23;20004;-78
2023/08/06 06:02:08;;;;;;;5.63;2.38;;;11.60;99.90;;;;;;6225289;23;20687;-78
2023/08/06 06:04:34;;;;;;;2.97;2.15;;;11.70;99.90;;;;;;6225497;23;20015;-77
2023/08/06 06:10:35;;;;;;;4.57;2.25;;;11.80;99.90;;;;;;6199937;23;20059;-78
2023/08/06 06:13:01;;;;;;;6.18;2.50;;;11.90;99.90;;;;;;6199373;23;20005;-77
2023/08/06 06:15:26;;;;;;;5.13;2.25;;;11.90;99.90;;;;;;6198303;23;20700;-78
2023/08/06 06:17:52;;;;;;;4.82;1.80;;;12.10;99.90;;;;;;6198755;23;20044;-78
2023/08/06 06:20:17;;;;;;;5.28;1.98;;;12.10;99.90;;;;;;6199116;23;20011;-77
2023/08/06 06:22:43;;;;;;;3.80;2.13;;;12.20;99.90;;;;;;6202802;23;20009;-77
2023/08/06 06:25:10;;;;;;;4.43;2.75;;;12.30;99.90;;;;;;6201635;23;20308;-78
2023/08/06 06:27:35;;;;;;;5.38;1.92;;;12.40;99.90;;;;;;6213081;23;20005;-77
2023/08/06 06:30:01;;;;;;;4.57;2.30;;;12.50;99.90;;;;;;6210795;23;20009;-79
2023/08/06 06:32:27;;;;;;;6.30;2.50;;;12.50;99.90;;;;;;6203066;23;20427;-78
2023/08/06 06:34:52;;;;;;;4.38;1.90;;;12.60;99.90;;;;;;6203288;23;19996;-78
2023/08/06 06:37:18;;;;;;;6.40;2.03;;;12.70;99.90;;;;;;6201052;23;20016;-78
2023/08/06 06:39:44;;;;;;;2.90;1.83;;;12.70;99.90;;;;;;6200583;23;20001;-78
2023/08/06 06:42:10;;;;;;;43.03;23.83;;;12.80;99.90;;;;;;6200154;23;20566;-78
2023/08/06 06:44:35;;;;;;;5.63;2.50;;;12.90;99.90;;;;;;6170372;23;20004;-78
2023/08/06 06:47:01;;;;;;;4.15;2.10;;;13.00;99.90;;;;;;6196916;23;20044;-76
2023/08/06 06:49:26;;;;;;;2.70;1.60;;;13.00;99.90;;;;;;6195492;23;20005;-77
2023/08/06 06:51:52;;;;;;;2.92;1.63;;;13.20;99.90;;;;;;6197119;23;20013;-77
2023/08/06 06:54:17;;;;;;;3.78;1.75;;;13.20;99.90;;;;;;6193224;23;20028;-78
2023/08/06 06:56:43;;;;;;;18.70;10.90;;;13.30;99.90;;;;;;6196463;23;20017;-77
2023/08/06 06:59:09;;;;;;;46.70;24.15;;;13.30;99.90;;;;;;6194250;23;20753;-78
2023/08/06 07:01:34;;;;;;;4.10;2.42;;;13.40;99.90;;;;;;6194971;23;20028;-78
2023/08/06 07:04:04;;;;;;;2.90;1.80;;;13.50;99.90;;;;;;6197356;23;20072;-78
2023/08/06 07:06:30;;;;;;;4.63;1.90;;;13.60;99.90;;;;;;6193089;23;20190;-78
2023/08/06 07:08:56;;;;;;;3.80;1.88;;;13.60;99.90;;;;;;6196444;23;20067;-79
2023/08/06 07:11:21;;;;;;;3.72;1.85;;;13.70;99.90;;;;;;6195981;23;20444;-76
2023/08/06 07:13:47;;;;;;;5.70;2.55;;;13.80;99.90;;;;;;6191567;23;20412;-76
2023/08/06 07:16:12;;;;;;;8.48;2.50;;;13.90;99.90;;;;;;6193140;23;20103;-77
2023/08/06 07:18:38;;;;;;;3.60;2.00;;;13.90;99.90;;;;;;6194180;23;20084;-77
2023/08/06 07:21:04;;;;;;;4.18;2.42;;;14.00;99.90;;;;;;6193086;23;20005;-76
2023/08/06 07:23:29;;;;;;;3.50;1.92;;;14.10;99.90;;;;;;6193953;23;20191;-77
2023/08/06 07:25:55;;;;;;;3.95;2.30;;;14.10;99.90;;;;;;6193544;23;20008;-76
2023/08/06 07:28:20;;;;;;;3.88;1.90;;;14.30;99.90;;;;;;6194044;23;20354;-77
2023/08/06 07:30:46;;;;;;;3.35;1.83;;;14.40;99.90;;;;;;6167743;23;20462;-76
2023/08/06 07:33:12;;;;;;;5.97;2.30;;;14.40;99.90;;;;;;6194290;23;20476;-76
2023/08/06 07:35:38;;;;;;;5.68;2.10;;;14.50;99.90;;;;;;6192718;23;20096;-76
2023/08/06 07:38:04;;;;;;;9.80;3.88;;;14.60;99.90;;;;;;6189941;23;20009;-76
2023/08/06 07:40:30;;;;;;;3.50;1.90;;;14.80;99.90;;;;;;6187748;23;20488;-77
2023/08/06 07:42:55;;;;;;;5.15;2.30;;;15.00;99.90;;;;;;6187736;23;20008;-77
2023/08/06 07:45:21;;;;;;;3.67;2.38;;;15.10;99.90;;;;;;6189691;23;20333;-76
2023/08/06 07:47:46;;;;;;;6.43;2.10;;;15.30;99.90;;;;;;6184951;23;20408;-77
2023/08/06 07:50:13;;;;;;;4.75;1.80;;;15.70;99.90;;;;;;6162799;23;20001;-76
2023/08/06 07:52:39;;;;;;;4.95;1.83;;;16.20;99.90;;;;;;6192038;23;20000;-77
2023/08/06 07:55:05;;;;;;;3.58;2.08;;;16.60;99.90;;;;;;6192847;23;19997;-77
2023/08/06 07:57:31;;;;;;;4.43;1.90;;;17.40;99.90;;;;;;6194124;23;20008;-76
2023/08/06 07:59:57;;;;;;;2.97;1.73;;;19.60;99.90;;;;;;6194635;23;20004;-77
2023/08/06 08:02:23;;;;;;;3.17;1.38;;;22.50;99.90;;;;;;6195072;23;20075;-77
2023/08/06 08:04:48;;;;;;;2.65;1.45;;;25.20;98.20;;;;;;6193583;23;20048;-77
2023/08/06 08:07:14;;;;;;;2.70;1.40;;;27.70;88.40;;;;;;6193165;23;20673;-77
2023/08/06 08:09:40;;;;;;;2.63;1.48;;;29.60;74.30;;;;;;6191919;23;20027;-77
2023/08/06 08:12:06;;;;;;;3.10;1.50;;;31.30;62.20;;;;;;6194260;23;20004;-76
2023/08/06 08:14:35;;;;;;;2.63;1.13;;;32.60;56.40;;;;;;6194544;23;20031;-77
2023/08/06 08:17:02;;;;;;;2.38;1.15;;;33.80;52.40;;;;;;6192616;23;20016;-75
2023/08/06 08:19:28;;;;;;;1.52;1.10;;;34.90;51.40;;;;;;6193840;23;20568;-77
2023/08/06 08:21:54;;;;;;;2.50;1.33;;;35.50;46.20;;;;;;6194044;23;20011;-77
2023/08/06 08:24:21;;;;;;;4.50;1.33;;;35.70;45.60;;;;;;6193805;23;20016;-77
2023/08/06 08:26:46;;;;;;;2.60;1.40;;;36.20;43.70;;;;;;6192752;23;20075;-76
2023/08/06 08:29:12;;;;;;;2.47;1.35;;;36.60;42.70;;;;;;6195289;23;20008;-77
2023/08/06 08:31:39;;;;;;;3.58;1.23;;;36.80;41.30;;;;;;6194100;23;20024;-76
2023/08/06 08:34:05;;;;;;;1.83;1.02;;;36.10;41.00;;;;;;6194387;23;20051;-76
2023/08/06 08:36:31;;;;;;;2.17;0.88;;;35.90;42.10;;;;;;6194947;23;20091;-76
2023/08/06 08:38:57;;;;;;;3.58;1.30;;;36.50;41.20;;;;;;6195279;23;20418;-77
2023/08/06 08:41:23;;;;;;;2.88;1.23;;;37.10;40.40;;;;;;6195397;23;20031;-77
2023/08/06 08:43:51;;;;;;;3.92;1.42;;;36.90;40.00;;;;;;6196714;23;20012;-77
2023/08/06 08:46:18;;;;;;;4.10;1.23;;;35.90;40.70;;;;;;6195831;23;20379;-76
2023/08/06 08:48:44;;;;;;;2.15;1.10;;;35.20;40.40;;;;;;6192620;23;20024;-76
2023/08/06 08:51:12;;;;;;;1.98;1.17;;;33.80;43.00;;;;;;6195515;23;20028;-77
2023/08/06 08:53:39;;;;;;;3.78;1.25;;;33.70;41.50;;;;;;6195695;23;20004;-76
2023/08/06 08:56:05;;;;;;;2.90;1.25;;;35.00;41.30;;;;;;6195986;23;20024;-76
2023/08/06 08:58:32;;;;;;;3.90;1.20;;;35.80;40.20;;;;;;6194757;23;20008;-77
2023/08/06 09:00:58;;;;;;;2.72;1.30;;;36.50;39.70;;;;;;6195967;23;20023;-77
2023/08/06 09:03:24;;;;;;;4.43;1.27;;;37.40;38.30;;;;;;6195839;23;20431;-77
2023/08/06 09:05:54;;;;;;;4.13;1.20;;;36.60;38.20;;;;;;6195570;23;20062;-77
2023/08/06 09:08:24;;;;;;;3.08;1.10;;;35.90;40.60;;;;;;6194895;23;20008;-77
2023/08/06 09:10:52;;;;;;;2.13;1.30;;;35.60;40.90;;;;;;6196231;23;20012;-76
2023/08/06 09:13:17;;;;;;;3.50;1.13;;;35.90;39.00;;;;;;6196540;23;20072;-78
2023/08/06 09:15:44;;;;;;;4.13;1.30;;;37.20;38.80;;;;;;6196804;23;20136;-77
2023/08/06 09:18:11;;;;;;;2.80;1.20;;;38.20;38.10;;;;;;6195106;23;20800;-77
2023/08/06 09:20:38;;;;;;;2.97;1.20;;;38.40;39.30;;;;;;6165579;23;20043;-76
2023/08/06 09:23:13;;;;;;;4.13;1.45;;;37.70;38.20;;;;;;6164664;23;20712;-77
2023/08/06 09:25:40;;;;;;;3.47;1.30;;;36.80;38.90;;;;;;6190111;23;20015;-77
2023/08/06 09:28:06;;;;;;;3.40;1.30;;;36.60;40.60;;;;;;6191782;23;20012;-77
2023/08/06 09:30:33;;;;;;;2.90;1.30;;;34.00;38.90;;;;;;6191342;23;20558;-77
2023/08/06 09:32:59;;;;;;;2.65;1.10;;;34.10;40.70;;;;;;6191537;23;20433;-77
2023/08/06 09:35:27;;;;;;;5.05;1.48;;;33.20;40.90;;;;;;6191006;23;20116;-77
2023/08/06 09:37:53;;;;;;;3.63;1.30;;;33.00;43.00;;;;;;6189678;23;20036;-76
2023/08/06 09:40:30;;;;;;;1.95;1.20;;;34.00;43.10;;;;;;6190474;23;20005;-76
2023/08/06 09:42:57;;;;;;;2.92;1.38;;;34.80;39.90;;;;;;6190283;23;20009;-77
2023/08/06 09:45:23;;;;;;;1.98;1.10;;;35.60;36.90;;;;;;6191793;23;20044;-76
2023/08/06 09:47:50;;;;;;;2.70;1.00;;;34.70;42.70;;;;;;6191827;23;20036;-76
2023/08/06 09:50:20;;;;;;;2.38;1.08;;;34.80;39.90;;;;;;6193216;23;20000;-76
2023/08/06 09:52:50;;;;;;;3.00;1.27;;;34.60;40.40;;;;;;6194635;23;20499;-77
2023/08/06 09:55:16;;;;;;;4.13;1.15;;;35.50;40.40;;;;;;6195653;23;20000;-78
2023/08/06 09:57:42;;;;;;;1.65;1.20;;;36.10;43.60;;;;;;6168468;23;20004;-76
2023/08/06 10:00:11;;;;;;;2.80;1.08;;;35.30;40.60;;;;;;6193987;23;20000;-77
2023/08/06 10:02:40;;;;;;;2.13;1.15;;;34.50;41.30;;;;;;6193204;23;20727;-76
2023/08/06 10:05:08;;;;;;;1.52;0.80;;;33.70;42.50;;;;;;6196220;23;20747;-77
2023/08/06 10:07:34;;;;;;;2.50;1.20;;;32.70;45.40;;;;;;6196296;23;20087;-77
2023/08/06 10:10:00;;;;;;;5.72;1.42;;;32.80;43.30;;;;;;6195781;23;20016;-76
2023/08/06 10:12:29;;;;;;;5.15;1.08;;;33.20;44.00;;;;;;6195750;23;20009;-77
2023/08/06 10:14:57;;;;;;;2.20;1.23;;;32.80;45.60;;;;;;6198377;23;20140;-77
2023/08/06 10:17:23;;;;;;;1.80;1.10;;;33.00;42.50;;;;;;6194240;23;20024;-77
2023/08/06 10:19:51;;;;;;;3.40;1.08;;;32.10;43.90;;;;;;6196692;23;20004;-77
2023/08/06 10:22:19;;;;;;;1.67;1.00;;;30.70;44.60;;;;;;6197236;23;20008;-76
2023/08/06 10:24:56;;;;;;;2.55;1.27;;;29.20;47.40;;;;;;6195783;23;20119;-76
2023/08/06 10:27:30;;;;;;;2.28;1.00;;;28.90;47.50;;;;;;6195301;23;20533;-77
2023/08/06 10:29:55;;;;;;;2.70;1.13;;;29.80;49.50;;;;;;6195141;23;20005;-77
2023/08/06 10:32:22;;;;;;;3.63;1.27;;;31.60;47.80;;;;;;6193582;23;20009;-77
2023/08/06 10:35:01;;;;;;;2.28;1.20;;;31.50;46.00;;;;;;6194490;23;20092;-78
2023/08/06 10:37:45;;;;;;;3.33;1.05;;;31.10;47.30;;;;;;6198085;23;20103;-77
2023/08/06 10:40:10;;;;;;;4.53;1.20;;;32.80;46.30;;;;;;6198376;23;20004;-79
2023/08/06 10:42:36;;;;;;;3.78;1.25;;;35.00;42.10;;;;;;6200078;23;20015;-81
2023/08/06 10:45:12;;;;;;;1.48;1.00;;;37.10;38.90;;;;;;6199389;23;20000;-78
2023/08/06 10:47:41;;;;;;;1.60;0.80;;;37.40;39.20;;;;;;6197039;23;20400;-77
2023/08/06 10:50:17;;;;;;;1.20;0.80;;;38.10;38.80;;;;;;6194919;23;20009;-78
2023/08/06 10:52:46;;;;;;;2.17;1.10;;;38.60;36.60;;;;;;6198184;23;20031;-78
2023/08/06 10:55:12;;;;;;;2.60;1.00;;;38.60;36.60;;;;;;6198513;23;20011;-78
2023/08/06 10:57:38;;;;;;;1.13;0.70;;;37.20;38.00;;;;;;6199142;23;20013;-78
2023/08/06 11:00:06;;;;;;;1.95;1.15;;;37.70;37.40;;;;;;6200121;23;20016;-78
2023/08/06 11:02:36;;;;;;;1.02;0.70;;;37.60;39.90;;;;;;6169210;23;20012;-77
2023/08/06 11:05:09;;;;;;;3.22;0.77;;;37.60;37.60;;;;;;6194182;23;20139;-77
2023/08/06 11:07:35;;;;;;;1.65;0.80;;;38.30;36.80;;;;;;6194829;23;20062;-77
2023/08/06 11:10:05;;;;;;;1.30;0.85;;;38.50;35.40;;;;;;6194486;23;20745;-79
2023/08/06 11:12:32;;;;;;;1.50;0.70;;;37.20;35.90;;;;;;6197279;23;20423;-78
2023/08/06 11:14:58;;;;;;;2.20;0.90;;;36.20;39.80;;;;;;6196675;23;20012;-78
2023/08/06 11:17:23;;;;;;;1.20;0.68;;;36.90;38.20;;;;;;6194740;23;20463;-78
2023/08/06 11:19:50;;;;;;;1.98;0.82;;;37.90;38.70;;;;;;6169676;23;20535;-78
2023/08/06 11:22:16;;;;;;;1.67;0.73;;;37.30;36.20;;;;;;6194884;23;20777;-79
2023/08/06 11:24:42;;;;;;;1.42;0.70;;;36.80;37.40;;;;;;6191149;23;20033;-78
2023/08/06 11:27:14;;;;;;;2.80;0.80;;;34.10;35.90;;;;;;6193739;23;20011;-79
2023/08/06 11:29:41;;;;;;;1.42;0.70;;;33.30;41.00;;;;;;6170948;23;20407;-78
2023/08/06 11:32:08;;;;;;;3.20;0.70;;;32.20;42.50;;;;;;6198827;23;20043;-78
2023/08/06 11:34:34;;;;;;;1.50;0.90;;;31.60;45.70;;;;;;6198925;23;20004;-78
2023/08/06 11:36:59;;;;;;;1.90;0.93;;;30.90;44.10;;;;;;6197082;23;20017;-78
2023/08/06 11:39:25;;;;;;;2.00;0.73;;;29.80;45.20;;;;;;6198268;23;20009;-79
2023/08/06 11:41:51;;;;;;;1.38;0.82;;;28.70;48.10;;;;;;6199350;23;20031;-79
2023/08/06 11:44:19;;;;;;;3.40;0.80;;;28.50;50.40;;;;;;6198688;23;19997;-78
2023/08/06 11:46:52;;;;;;;2.45;0.90;;;28.10;53.00;;;;;;6200682;23;20074;-77
2023/08/06 11:49:21;;;;;;;1.23;0.70;;;28.00;52.30;;;;;;6200700;23;20107;-78
2023/08/06 11:51:49;;;;;;;2.00;0.88;;;27.80;53.10;;;;;;6200486;23;20114;-77
2023/08/06 11:54:15;;;;;;;1.45;0.80;;;27.90;50.00;;;;;;6200698;23;20099;-78
2023/08/06 11:56:40;;;;;;;2.15;1.13;;;28.10;51.50;;;;;;6200419;23;20539;-78
2023/08/06 11:59:06;;;;;;;1.58;0.82;;;28.20;51.80;;;;;;6201023;23;20048;-77
2023/08/06 12:01:32;;;;;;;2.30;0.68;;;27.80;51.90;;;;;;6196136;23;20028;-77
2023/08/06 12:04:00;;;;;;;1.63;0.90;;;27.20;51.40;;;;;;6173240;23;20432;-78
2023/08/06 12:06:29;;;;;;;1.70;0.90;;;26.80;54.20;;;;;;6169629;23;20012;-78
2023/08/06 12:08:54;;;;;;;2.13;0.90;;;26.20;54.50;;;;;;6197899;23;20077;-77
2023/08/06 12:11:23;;;;;;;2.22;0.82;;;25.80;53.60;;;;;;6200402;23;20535;-78
2023/08/06 12:13:52;;;;;;;1.20;0.70;;;25.50;55.30;;;;;;6200042;23;20008;-78
2023/08/06 12:16:18;;;;;;;2.25;0.70;;;25.50;60.90;;;;;;6198758;23;20016;-78
2023/08/06 12:18:45;;;;;;;3.15;0.80;;;26.30;72.40;;;;;;6198946;23;20869;-78
2023/08/06 12:21:10;;;;;;;1.25;0.70;;;26.80;65.30;;;;;;6198410;23;20043;-78
2023/08/06 12:23:36;;;;;;;3.00;0.90;;;26.30;62.90;;;;;;6199914;23;20005;-77
2023/08/06 12:26:01;;;;;;;2.20;0.70;;;26.30;60.60;;;;;;6198184;23;20008;-79
2023/08/06 12:28:27;;;;;;;2.20;0.80;;;26.40;63.10;;;;;;6198470;23;20009;-79
2023/08/06 12:30:55;;;;;;;1.45;0.85;;;26.60;64.00;;;;;;6200721;23;20019;-78
2023/08/06 12:33:20;;;;;;;2.72;0.90;;;27.30;62.20;;;;;;6200754;23;20011;-79
2023/08/06 12:35:46;;;;;;;1.02;0.60;;;27.70;59.00;;;;;;6199600;23;20009;-78
2023/08/06 12:38:13;;;;;;;4.57;1.75;;;27.50;55.90;;;;;;6194173;23;20192;-78
2023/08/06 12:40:39;;;;;;;2.42;0.80;;;27.10;54.30;;;;;;6193770;23;20005;-78
2023/08/06 12:43:04;;;;;;;2.47;0.90;;;26.80;57.90;;;;;;6194813;23;20000;-78
2023/08/06 12:45:30;;;;;;;1.95;0.70;;;26.50;56.60;;;;;;6194995;23;20004;-79
2023/08/06 12:47:55;;;;;;;1.58;0.70;;;25.90;58.30;;;;;;6195625;23;20009;-78